ADDS TAF Board (Experimental) INFO

IDs: Format: Expanded Condensed

Updated at: 2117 UTC 24 Oct 2014

KCVG - Cincinnati Intl, KY, US

Issued at 2101 UTC 24 Oct 2014
Time2052Z24/22Z24/23Z25/00Z25/01Z25/02Z25/03Z25/04Z25/05Z25/06Z25/07Z25/08Z25/09Z25/10Z
TypeOBSPRVLPRVLPRVLPRVLPRVLPRVLPRVLPRVLPRVLPRVLPRVLPRVLPRVL
VIS7>6>6>6>6>6>6>6>6>6>6>6>6>6
CIG------------------------5050
CoverSCTFEWSCTSCTSCTSCTSCTSCTSCTSCTSCTSCTBKNBKN
FltCat--VFRVFRVFRVFRVFRVFRVFRVFRVFRVFRVFRVFRVFR
WX----------------------------
WDir250260220220220220220220220220220220210210
WSpd55333333333355
WGst----------------------------
R09/27
XWnd-2-1-2-2-2-2-2-2-2-2-2-2-4-4
HWnd-5-5-2-2-2-2-2-2-2-2-2-2-2-2
R18/36
XWnd-5-5-2-2-2-2-2-2-2-2-2-2-2-2
HWnd21222222222244
Raw TAF
KCVG 242101Z 2421/2524 26005KT P6SM FEW150
  FM242300 22003KT P6SM SCT050
  FM250900 21005KT P6SM BKN050
  FM251500 23010KT P6SM BKN035
  FM252000 28012KT P6SM SCT035


Raw METAR
KCVG 242052Z 25005KT 7SM FEW030 SCT250 19/04 A3004 RMK AO2 SLP169 T01890039 56016

TAF Board Legend

Hazard VFR MVFR IFR LIFR
Visibility (sm) >5 3≤X≤5 1≤X<3 <1
Ceiling (100 ft) >30 10≤X≤30 5≤X<10 <5
Wind Speed (kt) <10 10≤X<20 20≤X<30 ≥30
Wind Gust (kt) <15 15≤X<25 25≤X<35 ≥35
Weather No Wx Reported VCTS,-TS,-FZRA TS,FZRA +TS,+FZRA


Page loaded:  21:17 UTC  |   02:17 PM Pacific  |   03:17 PM Mountain  |   04:17 PM Central  |   05:17 PM Eastern

 

ADVISORIES

FORECASTS

FORECASTS

OBSERVATIONS

USER TOOLS

ABOUT US